createdAt,value
2018-11-02T00:02:24.927Z,99.28
2018-11-02T00:04:55.882Z,98.73
2018-11-02T00:07:26.011Z,97.81
2018-11-02T00:09:56.096Z,97.13
2018-11-02T00:12:25.937Z,96.30
2018-11-02T00:14:55.971Z,96.58
2018-11-02T00:17:27.102Z,96.39
2018-11-02T00:19:58.760Z,95.91
2018-11-02T00:22:29.652Z,96.27
2018-11-02T00:25:00.640Z,95.34
2018-11-02T00:27:31.748Z,96.38
2018-11-02T00:30:02.411Z,96.59
2018-11-02T00:32:33.505Z,98.55
2018-11-02T00:35:04.972Z,99.96
2018-11-02T00:37:37.147Z,100.00
2018-11-02T00:40:09.816Z,99.90
2018-11-02T00:42:41.151Z,99.93
2018-11-02T00:45:13.637Z,100.00
2018-11-02T00:47:44.411Z,99.20
2018-11-02T00:50:16.209Z,98.27
2018-11-02T00:52:46.694Z,98.97
2018-11-02T00:55:18.021Z,99.23
2018-11-02T00:57:48.514Z,99.38
2018-11-02T01:00:19.405Z,98.46
2018-11-02T01:02:50.903Z,98.89
2018-11-02T01:05:21.737Z,98.42
2018-11-02T01:07:54.011Z,98.00
2018-11-02T01:10:24.576Z,99.80
2018-11-02T01:12:56.263Z,99.92
2018-11-02T01:15:27.655Z,100.00
2018-11-02T01:17:58.983Z,100.00
2018-11-02T01:20:29.761Z,100.00
2018-11-02T01:22:59.746Z,100.00
2018-11-02T01:25:30.529Z,100.00
2018-11-02T01:28:02.641Z,100.00
2018-11-02T01:30:35.431Z,100.00
2018-11-02T01:33:06.265Z,100.00
2018-11-02T01:35:37.116Z,100.00
2018-11-02T01:38:07.803Z,100.00
2018-11-02T01:40:38.665Z,100.00
2018-11-02T01:43:12.092Z,100.00
2018-11-02T01:45:43.517Z,100.00
2018-11-02T01:48:14.463Z,100.00
2018-11-02T01:50:46.683Z,100.00
2018-11-02T01:53:17.557Z,100.00
2018-11-02T01:58:26.293Z,100.00
2018-11-02T02:00:58.285Z,100.00
2018-11-02T02:03:29.813Z,100.00
2018-11-02T02:06:02.184Z,100.00
2018-11-02T02:08:33.985Z,100.00
2018-11-02T02:11:06.317Z,100.00
2018-11-02T02:13:37.084Z,100.00
2018-11-02T02:16:09.204Z,100.00
2018-11-02T02:18:39.193Z,100.00
2018-11-02T02:21:10.119Z,100.00
2018-11-02T02:23:41.624Z,100.00
2018-11-02T02:26:11.941Z,100.00
2018-11-02T02:28:43.097Z,100.00
2018-11-02T02:31:14.327Z,99.53
2018-11-02T02:33:45.878Z,100.00
2018-11-02T02:36:16.959Z,99.55
2018-11-02T02:38:47.514Z,99.92
2018-11-02T02:41:18.287Z,99.22
2018-11-02T02:43:49.930Z,99.43
2018-11-02T02:46:21.278Z,99.87
2018-11-02T02:48:52.114Z,99.79
2018-11-02T02:51:24.516Z,99.56
2018-11-02T02:53:54.196Z,100.00
2018-11-02T02:56:24.934Z,99.83
2018-11-02T02:58:55.927Z,99.98
2018-11-02T03:01:26.211Z,99.22
2018-11-02T03:03:56.354Z,98.64
2018-11-02T03:06:26.559Z,98.91
2018-11-02T03:08:58.022Z,98.43
2018-11-02T03:11:37.630Z,98.13
2018-11-02T03:14:10.041Z,97.32
2018-11-02T03:16:41.961Z,98.10
2018-11-02T03:19:14.230Z,97.54
2018-11-02T03:21:47.215Z,97.10
2018-11-02T03:24:27.514Z,96.94
2018-11-02T03:27:00.228Z,97.48
2018-11-02T03:29:31.405Z,97.49
2018-11-02T03:32:06.442Z,97.33
2018-11-02T03:34:38.929Z,97.07
2018-11-02T03:37:10.887Z,96.37
2018-11-02T03:39:43.680Z,96.63
2018-11-02T03:42:14.591Z,96.20
2018-11-02T03:44:44.913Z,96.33
2018-11-02T03:47:16.593Z,96.45
2018-11-02T03:49:48.348Z,96.54
2018-11-02T03:52:17.972Z,96.58
2018-11-02T03:54:48.047Z,96.25
2018-11-02T03:57:19.295Z,96.26
2018-11-02T03:59:49.311Z,96.19
2018-11-02T04:02:20.258Z,96.01
2018-11-02T04:04:57.783Z,96.01
2018-11-02T04:07:30.031Z,95.78
2018-11-02T04:10:03.469Z,95.93
2018-11-02T04:12:33.989Z,95.85
2018-11-02T04:15:05.693Z,95.34
2018-11-02T04:17:38.708Z,95.78
2018-11-02T04:20:09.824Z,95.61
2018-11-02T04:22:41.193Z,95.08
2018-11-02T04:25:12.480Z,95.46
2018-11-02T04:27:44.060Z,95.18
2018-11-02T04:30:15.665Z,95.23
2018-11-02T04:32:47.222Z,95.64
2018-11-02T04:35:17.868Z,95.43
2018-11-02T04:37:48.123Z,94.83
2018-11-02T04:40:20.003Z,95.06
2018-11-02T04:42:51.458Z,95.39
2018-11-02T04:45:26.797Z,96.09
2018-11-02T04:47:58.751Z,95.24
2018-11-02T04:50:29.472Z,95.55
2018-11-02T04:53:00.659Z,94.90
2018-11-02T04:55:31.307Z,95.69
2018-11-02T04:58:01.167Z,95.08
2018-11-02T05:00:31.798Z,94.89
2018-11-02T05:03:06.004Z,94.92
2018-11-02T05:05:38.740Z,95.50
2018-11-02T05:08:09.152Z,95.25
2018-11-02T05:10:42.338Z,95.01
2018-11-02T05:13:16.730Z,95.13
2018-11-02T05:15:48.319Z,94.79
2018-11-02T05:18:18.505Z,94.59
2018-11-02T05:20:49.351Z,94.55
2018-11-02T05:23:20.493Z,95.00
2018-11-02T05:25:51.765Z,94.42
2018-11-02T05:28:23.939Z,95.50
2018-11-02T05:30:55.986Z,95.20
2018-11-02T05:33:26.989Z,95.25
2018-11-02T05:35:59.580Z,95.30
2018-11-02T05:38:29.899Z,95.30
2018-11-02T05:41:01.248Z,95.19
2018-11-02T05:43:38.595Z,94.79
2018-11-02T05:46:11.720Z,95.39
2018-11-02T05:48:45.413Z,94.01
2018-11-02T05:51:19.956Z,94.08
2018-11-02T05:53:52.422Z,93.98
2018-11-02T05:59:12.171Z,94.48
2018-11-02T06:01:44.176Z,95.03
2018-11-02T06:04:15.652Z,93.80
2018-11-02T06:06:49.087Z,94.67
2018-11-02T06:09:23.574Z,95.34
2018-11-02T06:11:58.084Z,94.96
2018-11-02T06:14:38.757Z,93.62
2018-11-02T06:17:14.009Z,94.71
2018-11-02T06:19:50.984Z,94.93
2018-11-02T06:22:22.815Z,94.74
2018-11-02T06:24:54.665Z,94.28
2018-11-02T06:27:28.320Z,95.07
2018-11-02T06:30:00.263Z,94.21
2018-11-02T06:32:30.957Z,94.36
2018-11-02T06:35:01.614Z,94.67
2018-11-02T06:37:34.420Z,94.39
2018-11-02T06:40:06.573Z,94.35
2018-11-02T06:42:39.297Z,94.02
2018-11-02T06:45:13.957Z,93.81
2018-11-02T06:47:47.067Z,93.39
2018-11-02T06:50:18.266Z,93.09
2018-11-02T06:52:50.025Z,93.80
2018-11-02T06:55:23.214Z,92.99
2018-11-02T06:57:55.381Z,93.29
2018-11-02T07:00:26.477Z,93.23
2018-11-02T07:02:58.044Z,92.97
2018-11-02T07:05:29.009Z,92.77
2018-11-02T07:08:02.820Z,92.91
2018-11-02T07:10:35.456Z,92.96
2018-11-02T07:13:13.012Z,92.08
2018-11-02T07:15:51.065Z,91.79
2018-11-02T07:18:21.530Z,92.44
2018-11-02T07:20:53.555Z,91.54
2018-11-02T07:23:25.518Z,90.54
2018-11-02T07:25:57.237Z,91.54
2018-11-02T07:28:29.002Z,91.25
2018-11-02T07:31:00.654Z,91.90
2018-11-02T07:33:33.231Z,91.38
2018-11-02T07:36:07.993Z,92.35
2018-11-02T07:38:40.452Z,91.92
2018-11-02T07:41:12.596Z,91.50
2018-11-02T07:43:43.711Z,90.72
2018-11-02T07:46:14.784Z,89.85
2018-11-02T07:48:46.088Z,90.92
2018-11-02T07:51:17.271Z,90.55
2018-11-02T07:55:12.830Z,90.08
2018-11-02T07:57:44.276Z,89.97
2018-11-02T08:00:17.552Z,88.90
2018-11-02T08:02:51.775Z,89.25
2018-11-02T08:05:34.060Z,89.95
2018-11-02T08:08:08.600Z,89.43
2018-11-02T08:10:41.020Z,89.63
2018-11-02T08:13:12.932Z,90.26
2018-11-02T08:15:43.745Z,90.65
2018-11-02T08:18:15.001Z,90.65
2018-11-02T08:20:45.961Z,91.37
2018-11-02T08:23:17.761Z,91.23
2018-11-02T08:25:48.662Z,90.24
2018-11-02T08:28:20.466Z,91.04
2018-11-02T08:30:51.579Z,90.53
2018-11-02T08:33:24.060Z,90.78
2018-11-02T08:35:56.659Z,90.93
2018-11-02T08:38:27.767Z,90.59
2018-11-02T08:40:58.835Z,90.64
2018-11-02T08:43:30.837Z,90.89
2018-11-02T08:46:05.785Z,90.78
2018-11-02T08:48:47.889Z,90.57
2018-11-02T08:51:23.648Z,90.47
2018-11-02T08:53:55.866Z,91.01
2018-11-02T08:56:27.832Z,92.13
2018-11-02T08:59:30.209Z,93.34
2018-11-02T09:02:01.351Z,94.41
2018-11-02T09:04:31.687Z,95.13
2018-11-02T09:07:02.207Z,96.43
2018-11-02T09:09:32.487Z,96.84
2018-11-02T09:12:02.796Z,100.00
2018-11-02T09:17:11.778Z,98.43
2018-11-02T09:19:42.218Z,99.77
2018-11-02T09:22:12.390Z,100.00
2018-11-02T09:24:42.302Z,100.00
2018-11-02T09:27:12.782Z,100.00
2018-11-02T09:29:43.570Z,100.00
2018-11-02T09:32:14.113Z,100.00
2018-11-02T09:34:44.074Z,100.00
2018-11-02T09:37:14.788Z,100.00
2018-11-02T09:39:44.907Z,100.00
2018-11-02T09:42:15.173Z,100.00
2018-11-02T09:44:45.478Z,100.00
2018-11-02T09:47:15.718Z,100.00
2018-11-02T09:49:48.328Z,100.00
2018-11-02T09:52:20.857Z,100.00
2018-11-02T09:54:51.011Z,100.00
2018-11-02T09:57:22.416Z,100.00
2018-11-02T09:59:56.243Z,100.00
2018-11-02T10:02:27.965Z,100.00
2018-11-02T10:05:03.291Z,100.00
2018-11-02T10:07:39.701Z,100.00
2018-11-02T10:10:14.196Z,100.00
2018-11-02T10:12:43.957Z,100.00
2018-11-02T10:15:15.543Z,100.00
2018-11-02T10:17:45.800Z,100.00
2018-11-02T10:20:15.723Z,100.00
2018-11-02T10:22:46.147Z,100.00
2018-11-02T10:25:16.538Z,100.00
2018-11-02T10:27:46.613Z,100.00
2018-11-02T10:30:17.473Z,100.00
2018-11-02T10:32:51.868Z,100.00
2018-11-02T10:35:22.567Z,100.00
2018-11-02T10:37:53.549Z,100.00
2018-11-02T10:40:25.649Z,100.00
2018-11-02T10:43:01.770Z,100.00
2018-11-02T10:45:37.873Z,100.00
2018-11-02T10:48:09.315Z,100.00
2018-11-02T10:50:41.152Z,100.00
2018-11-02T10:53:12.791Z,100.00
2018-11-02T10:55:43.316Z,100.00
2018-11-02T10:58:14.269Z,100.00
2018-11-02T11:00:50.228Z,100.00
2018-11-02T11:03:21.299Z,100.00
2018-11-02T11:05:51.288Z,100.00
2018-11-02T11:09:13.281Z,100.00
2018-11-02T11:11:43.881Z,99.66
2018-11-02T11:14:14.098Z,99.37
2018-11-02T11:16:44.326Z,98.35
2018-11-02T11:19:14.956Z,98.14
2018-11-02T11:21:44.764Z,98.75
2018-11-02T11:24:16.016Z,97.68
2018-11-02T11:26:46.631Z,96.52
2018-11-02T11:29:19.554Z,96.83
2018-11-02T11:31:53.287Z,96.51
2018-11-02T11:34:25.043Z,95.93
2018-11-02T11:36:55.149Z,96.01
2018-11-02T11:39:28.288Z,95.78
2018-11-02T11:41:58.756Z,95.99
2018-11-02T11:44:42.059Z,95.65
2018-11-02T11:47:13.196Z,94.58
2018-11-02T11:49:44.382Z,95.80
2018-11-02T11:52:24.824Z,95.54
2018-11-02T11:54:57.062Z,96.80
2018-11-02T11:57:34.777Z,96.33
2018-11-02T12:00:06.901Z,96.16
2018-11-02T12:02:38.584Z,95.41
2018-11-02T12:20:09.159Z,89.11
2018-11-02T12:26:00.787Z,87.39
2018-11-02T12:28:40.307Z,87.03
2018-11-02T12:31:11.640Z,85.52
2018-11-02T12:39:42.423Z,85.22
2018-11-02T12:42:41.111Z,84.75
2018-11-02T13:37:31.242Z,83.73
2018-11-02T13:43:55.183Z,83.73
2018-11-02T13:46:42.960Z,81.69
2018-11-02T13:49:31.098Z,81.42
2018-11-02T13:55:37.282Z,79.73
2018-11-02T13:58:10.684Z,78.69
2018-11-02T14:01:05.715Z,78.66
2018-11-02T14:30:31.418Z,79.24
2018-11-02T14:33:25.660Z,79.27
2018-11-02T14:36:09.292Z,79.13
2018-11-02T14:38:59.757Z,79.63
2018-11-02T14:44:57.883Z,81.68
2018-11-02T14:51:54.520Z,81.79
2018-11-02T14:54:58.612Z,83.91
2018-11-02T14:57:44.528Z,84.94
2018-11-02T15:16:05.701Z,89.86
2018-11-02T15:21:35.750Z,90.05
2018-11-02T15:24:51.951Z,90.80
2018-11-02T15:27:26.773Z,90.88
2018-11-02T15:30:02.057Z,90.84
2018-11-02T15:32:33.678Z,90.43
2018-11-02T15:35:34.789Z,89.84
2018-11-02T15:38:14.966Z,90.31
2018-11-02T15:40:47.345Z,89.90
2018-11-02T15:46:50.295Z,88.71
2018-11-02T15:49:23.462Z,88.83
2018-11-02T17:24:18.337Z,92.03
2018-11-02T17:27:11.761Z,90.77
2018-11-02T17:37:09.715Z,90.28
2018-11-02T17:55:40.751Z,90.97
2018-11-02T17:58:27.480Z,90.64
2018-11-02T19:07:02.590Z,89.77
2018-11-02T19:17:23.974Z,89.33
2018-11-02T19:30:19.006Z,90.82
2018-11-02T21:44:45.777Z,96.53
2018-11-02T22:31:16.302Z,95.67
2018-11-02T22:34:00.516Z,97.17
2018-11-02T23:01:48.957Z,97.41
2018-11-02T23:26:23.604Z,97.80
